Observations for ROME URBE IT-AFB, Italy (LIRU)

LIRU 191750Z 00000KT 9999 FEW050 17/14 Q1018
LIRU 191650Z 24004KT CAVOK 20/14 Q1017  
LIRU 191550Z 21005KT CAVOK 21/14 Q1017  
LIRU 191450Z 20007KT CAVOK 23/15 Q1017  
LIRU 191350Z VRB03KT 150V230 9999 SCT050 23/14 Q1017
LIRU 191250Z VRB02KT 9999 SCT050 23/13 Q1017
LIRU 191150Z VRB03KT 130V270 9999 FEW040 22/14 Q1018
LIRU 191050Z 13004KT CAVOK 22/14 Q1018  
LIRU 190950Z VRB02KT CAVOK 20/14 Q1019  
LIRU 190850Z VRB03KT 360V070 CAVOK 18/13 Q1019  
LIRU 190750Z 00000KT CAVOK 14/13 Q1019  
LIRU 190650Z 36004KT 9999 3000N BCFG NSC 11/11 Q1019
LIRU 190600Z VRB02KT 8000 1000N BCFG NSC 10/10 Q1018